Time;durP1;ratioP1;P1;durP2;ratioP2;P2;SDS_P1;SDS_P2;PMS_P1;PMS_P2;Temp;Humidity;BMP_temperature;BMP_pressure;BME280_temperature;BME280_humidity;BME280_pressure;Samples;Min_cycle;Max_cycle;Signal;HPM_P1;HPM_P2
2022/02/06 00:03:57;;;;;;;28.73;13.37;;;;;;;;;;10326040;28;20390;-59
2022/02/06 00:08:57;;;;;;;21.92;13.50;;;;;;;;;;10325194;28;21043;-60
2022/02/06 00:13:58;;;;;;;21.37;12.93;;;;;;;;;;10326712;28;20109;-59
2022/02/06 00:18:58;;;;;;;19.00;11.47;;;;;;;;;;10326685;28;20440;-59
2022/02/06 00:24:00;;;;;;;17.97;12.90;;;;;;;;;;10332212;28;20467;-59
2022/02/06 00:29:25;;;;;;;21.15;12.50;;;;;;;;;;10334811;28;20463;-60
2022/02/06 00:39:37;;;;;;;21.40;12.05;;;;;;;;;;10334996;28;20445;-60
2022/02/06 00:44:38;;;;;;;21.20;12.20;;;;;;;;;;10334640;28;20071;-60
2022/02/06 00:49:40;;;;;;;18.60;12.43;;;;;;;;;;10334435;28;20031;-60
2022/02/06 00:54:40;;;;;;;21.23;11.75;;;;;;;;;;10334229;28;20043;-60
2022/02/06 00:59:41;;;;;;;20.20;11.95;;;;;;;;;;10331194;28;20114;-60
2022/02/06 01:04:41;;;;;;;17.42;11.57;;;;;;;;;;10334160;28;20030;-60
2022/02/06 01:09:42;;;;;;;19.33;11.57;;;;;;;;;;10330076;28;20462;-60
2022/02/06 01:19:56;;;;;;;19.40;11.37;;;;;;;;;;10333224;28;20453;-60
2022/02/06 01:25:20;;;;;;;18.45;10.88;;;;;;;;;;10333213;28;20026;-59
2022/02/06 01:30:25;;;;;;;19.52;11.35;;;;;;;;;;10332698;28;20046;-59
2022/02/06 01:35:41;;;;;;;18.75;11.80;;;;;;;;;;10332054;28;20402;-59
2022/02/06 01:40:56;;;;;;;22.48;11.38;;;;;;;;;;10332769;28;20030;-59
2022/02/06 02:17:38;;;;;;;15.07;10.32;;;;;;;;;;10331335;28;20165;-60
2022/02/06 02:28:02;;;;;;;;;;;;;;;;;;10331504;28;20467;-60
2022/02/06 02:44:08;;;;;;;16.83;10.48;;;;;;;;;;10329639;28;20395;-59
2022/02/06 02:48:52;;;;;;;16.38;10.32;;;;;;;;;;10329624;28;20026;-59
2022/02/06 02:53:58;;;;;;;14.27;10.23;;;;;;;;;;10329133;28;20403;-60
2022/02/06 02:59:20;;;;;;;15.20;10.25;;;;;;;;;;10329235;28;20030;-59
2022/02/06 03:04:20;;;;;;;12.45;9.90;;;;;;;;;;10329397;28;20026;-59
2022/02/06 03:09:22;;;;;;;14.57;9.80;;;;;;;;;;10329271;28;20474;-59
2022/02/06 03:14:38;;;;;;;15.88;10.02;;;;;;;;;;10325619;28;20038;-60
2022/02/06 03:19:42;;;;;;;17.88;10.73;;;;;;;;;;10325564;28;20494;-60
2022/02/06 03:24:43;;;;;;;16.58;10.13;;;;;;;;;;10327868;28;20041;-60
2022/02/06 03:29:44;;;;;;;16.55;10.20;;;;;;;;;;10328179;28;20046;-60
2022/02/06 03:34:44;;;;;;;14.07;10.13;;;;;;;;;;10328429;28;20061;-60
2022/02/06 03:39:50;;;;;;;15.43;9.83;;;;;;;;;;10327825;28;20026;-59
2022/02/06 03:44:58;;;;;;;14.05;10.23;;;;;;;;;;10343218;28;21031;-60
2022/02/06 03:50:03;;;;;;;15.45;9.43;;;;;;;;;;10326501;28;20046;-60
2022/02/06 03:55:04;;;;;;;16.67;9.90;;;;;;;;;;10327543;28;20018;-60
2022/02/06 04:00:06;;;;;;;16.95;9.82;;;;;;;;;;10327430;28;20430;-59
2022/02/06 04:05:07;;;;;;;15.25;10.18;;;;;;;;;;10327116;28;20030;-60
2022/02/06 04:10:10;;;;;;;12.27;9.75;;;;;;;;;;10327192;28;20031;-60
2022/02/06 04:15:22;;;;;;;13.25;9.82;;;;;;;;;;10327626;28;20101;-59
2022/02/06 04:20:22;;;;;;;13.90;9.65;;;;;;;;;;10339164;28;20410;-60
2022/02/06 04:25:23;;;;;;;15.95;10.13;;;;;;;;;;10324075;28;20040;-59
2022/02/06 04:30:23;;;;;;;17.48;9.52;;;;;;;;;;10326777;28;20042;-60
2022/02/06 04:35:29;;;;;;;14.75;9.70;;;;;;;;;;10327261;28;20089;-60
2022/02/06 05:12:23;;;;;;;10.65;8.75;;;;;;;;;;10331372;28;20538;-60
2022/02/06 05:33:00;;;;;;;12.80;9.63;;;;;;;;;;10329498;28;20046;-59
2022/02/06 05:38:00;;;;;;;13.35;9.10;;;;;;;;;;10331799;28;20034;-59
2022/02/06 05:43:01;;;;;;;13.73;9.63;;;;;;;;;;10329604;28;20113;-59
2022/02/06 05:48:01;;;;;;;14.02;9.23;;;;;;;;;;10329915;28;20031;-60
2022/02/06 05:53:02;;;;;;;13.23;8.88;;;;;;;;;;10331147;28;20030;-59
2022/02/06 05:58:02;;;;;;;14.57;9.95;;;;;;;;;;10331260;28;20030;-59
2022/02/06 06:03:06;;;;;;;13.43;9.10;;;;;;;;;;10331282;28;20054;-60
2022/02/06 06:08:06;;;;;;;11.20;8.50;;;;;;;;;;10331742;28;20460;-59
2022/02/06 06:13:07;;;;;;;13.45;9.23;;;;;;;;;;10330831;28;20035;-59
2022/02/06 06:18:08;;;;;;;11.63;8.40;;;;;;;;;;10330320;28;20084;-59
2022/02/06 06:23:09;;;;;;;12.90;9.55;;;;;;;;;;10331123;28;20508;-60
2022/02/06 06:28:09;;;;;;;11.90;8.57;;;;;;;;;;10330926;28;20077;-60
2022/02/06 06:33:10;;;;;;;12.85;9.20;;;;;;;;;;10326704;28;20121;-60
2022/02/06 06:38:12;;;;;;;14.73;9.30;;;;;;;;;;10326395;28;20054;-60
2022/02/06 06:43:12;;;;;;;14.43;9.02;;;;;;;;;;10330272;28;20100;-59
2022/02/06 06:48:12;;;;;;;13.57;8.57;;;;;;;;;;10329725;28;20442;-60
2022/02/06 06:53:13;;;;;;;10.70;8.17;;;;;;;;;;10329323;28;20543;-59
2022/02/06 06:58:25;;;;;;;13.02;8.77;;;;;;;;;;10329340;28;20467;-60
2022/02/06 07:03:26;;;;;;;12.18;8.55;;;;;;;;;;10329040;28;20035;-59
2022/02/06 07:08:27;;;;;;;10.00;8.30;;;;;;;;;;10329365;28;20030;-64
2022/02/06 07:13:27;;;;;;;14.45;9.55;;;;;;;;;;10327256;28;20398;-63
2022/02/06 07:18:27;;;;;;;23.70;9.90;;;;;;;;;;10329086;28;20347;-63
2022/02/06 07:23:28;;;;;;;13.87;9.90;;;;;;;;;;10327003;28;20460;-62
2022/02/06 07:28:30;;;;;;;16.20;10.40;;;;;;;;;;10327715;28;20030;-62
2022/02/06 07:33:30;;;;;;;13.82;9.95;;;;;;;;;;10327548;28;20472;-62
2022/02/06 07:38:30;;;;;;;18.80;9.60;;;;;;;;;;10325290;28;20026;-64
2022/02/06 07:43:31;;;;;;;18.20;9.97;;;;;;;;;;10324702;28;20762;-62
2022/02/06 07:48:31;;;;;;;17.53;10.27;;;;;;;;;;10327866;28;20035;-62
2022/02/06 07:53:32;;;;;;;20.35;12.15;;;;;;;;;;10327752;28;20109;-61
2022/02/06 07:58:32;;;;;;;22.10;11.90;;;;;;;;;;10327178;28;20114;-62
2022/02/06 08:03:32;;;;;;;16.50;11.60;;;;;;;;;;10326835;28;20518;-62
2022/02/06 08:08:33;;;;;;;23.10;12.90;;;;;;;;;;10326689;28;20026;-62
2022/02/06 08:13:42;;;;;;;22.05;12.40;;;;;;;;;;10326103;28;20033;-60
2022/02/06 08:18:42;;;;;;;21.15;12.98;;;;;;;;;;10327101;28;20027;-66
2022/02/06 08:23:44;;;;;;;21.77;12.82;;;;;;;;;;10327247;28;20034;-66
2022/02/06 08:28:45;;;;;;;21.02;12.82;;;;;;;;;;10326576;28;20213;-63
2022/02/06 08:33:46;;;;;;;27.77;12.85;;;;;;;;;;10325882;28;20089;-64
2022/02/06 08:38:46;;;;;;;19.60;13.03;;;;;;;;;;10326437;28;20057;-68
2022/02/06 08:43:47;;;;;;;23.67;12.07;;;;;;;;;;10327785;28;20464;-65
2022/02/06 08:48:47;;;;;;;26.50;12.63;;;;;;;;;;10331510;28;20088;-68
2022/02/06 08:53:48;;;;;;;19.63;12.30;;;;;;;;;;10335008;28;20453;-66
2022/02/06 08:58:48;;;;;;;25.83;13.52;;;;;;;;;;10334212;28;20046;-62
2022/02/06 09:03:48;;;;;;;20.63;12.97;;;;;;;;;;10333699;28;20026;-65
2022/02/06 09:08:54;;;;;;;20.50;12.33;;;;;;;;;;10333151;28;20477;-61
2022/02/06 09:13:55;;;;;;;20.98;12.45;;;;;;;;;;10333866;28;20506;-63
2022/02/06 09:18:55;;;;;;;23.63;12.13;;;;;;;;;;10331994;28;20033;-63
2022/02/06 09:23:56;;;;;;;19.03;12.50;;;;;;;;;;10332505;28;20490;-63
2022/02/06 09:28:56;;;;;;;22.60;12.73;;;;;;;;;;10332001;28;20535;-67
2022/02/06 09:38:58;;;;;;;23.23;12.75;;;;;;;;;;10332832;28;20081;-62
2022/02/06 09:43:59;;;;;;;22.83;12.48;;;;;;;;;;10332360;28;20030;-63
2022/02/06 09:48:59;;;;;;;26.88;11.38;;;;;;;;;;10327538;28;20382;-62
2022/02/06 09:54:03;;;;;;;28.05;12.32;;;;;;;;;;10330012;28;20126;-59
2022/02/06 09:59:07;;;;;;;21.58;11.52;;;;;;;;;;10328539;28;20029;-64
2022/02/06 10:04:08;;;;;;;23.42;11.30;;;;;;;;;;10329994;28;20061;-61
2022/02/06 10:09:09;;;;;;;26.38;11.13;;;;;;;;;;10331658;28;20036;-59
2022/02/06 10:14:11;;;;;;;23.73;11.18;;;;;;;;;;10332001;28;20467;-61
2022/02/06 10:19:15;;;;;;;23.70;10.55;;;;;;;;;;10330376;28;20018;-63
2022/02/06 10:24:32;;;;;;;31.65;10.93;;;;;;;;;;10330157;28;20033;-66
2022/02/06 10:29:42;;;;;;;25.52;11.18;;;;;;;;;;10330096;28;20092;-67
2022/02/06 10:34:44;;;;;;;17.48;10.80;;;;;;;;;;10328839;28;20022;-66
2022/02/06 10:40:02;;;;;;;43.85;28.48;;;;;;;;;;10297155;28;20050;-57
2022/02/06 10:45:25;;;;;;;21.80;17.30;;;;;;;;;;10295081;28;20030;-59
2022/02/06 10:50:27;;;;;;;28.15;17.02;;;;;;;;;;10295662;28;20026;-60
2022/02/06 10:55:28;;;;;;;25.02;15.90;;;;;;;;;;10292172;28;20090;-65
2022/02/06 11:00:34;;;;;;;25.23;14.07;;;;;;;;;;10292364;28;20052;-63
2022/02/06 11:05:46;;;;;;;23.83;13.95;;;;;;;;;;10294374;28;20560;-62
2022/02/06 11:10:54;;;;;;;20.75;13.55;;;;;;;;;;10295305;28;20084;-63
2022/02/06 11:15:56;;;;;;;21.27;13.75;;;;;;;;;;10293975;28;20033;-64
2022/02/06 11:21:09;;;;;;;17.40;12.48;;;;;;;;;;10295349;28;20478;-62
2022/02/06 11:26:12;;;;;;;16.25;11.77;;;;;;;;;;10293591;28;20250;-59
2022/02/06 11:31:15;;;;;;;22.67;11.95;;;;;;;;;;10293988;28;20473;-61
2022/02/06 11:36:25;;;;;;;19.42;11.40;;;;;;;;;;10294356;28;20522;-60
2022/02/06 11:47:18;;;;;;;16.40;11.18;;;;;;;;;;10293049;28;20034;-61
2022/02/06 11:52:19;;;;;;;18.98;10.48;;;;;;;;;;10293856;28;20477;-62
2022/02/06 11:57:27;;;;;;;15.00;10.65;;;;;;;;;;10292288;28;20106;-62
2022/02/06 12:02:29;;;;;;;17.75;10.25;;;;;;;;;;10289439;28;20038;-60
2022/02/06 12:07:53;;;;;;;17.80;10.50;;;;;;;;;;10290616;28;20527;-61
2022/02/06 12:13:20;;;;;;;16.33;10.52;;;;;;;;;;10292690;28;20441;-60
2022/02/06 12:18:28;;;;;;;16.55;10.13;;;;;;;;;;10296791;28;20045;-65
2022/02/06 12:23:40;;;;;;;16.53;10.57;;;;;;;;;;10326899;28;20050;-62
2022/02/06 12:28:42;;;;;;;15.25;10.35;;;;;;;;;;10333722;28;20034;-62
2022/02/06 12:33:51;;;;;;;16.20;10.40;;;;;;;;;;10334558;28;20597;-61
2022/02/06 12:38:52;;;;;;;19.85;11.32;;;;;;;;;;10334711;28;20049;-64
2022/02/06 12:43:58;;;;;;;13.70;10.48;;;;;;;;;;10333963;28;20045;-62
2022/02/06 12:49:00;;;;;;;18.48;10.35;;;;;;;;;;10334352;28;20077;-63
2022/02/06 12:54:03;;;;;;;15.68;10.75;;;;;;;;;;10333936;28;20471;-63
2022/02/06 12:59:04;;;;;;;14.38;10.10;;;;;;;;;;10333832;28;20037;-63
2022/02/06 13:04:06;;;;;;;18.40;10.95;;;;;;;;;;10333563;28;20030;-63
2022/02/06 13:09:14;;;;;;;16.67;10.77;;;;;;;;;;10330352;28;20127;-63
2022/02/06 13:24:33;;;;;;;14.40;10.50;;;;;;;;;;10332589;28;20034;-61
2022/02/06 13:29:42;;;;;;;15.80;11.10;;;;;;;;;;10331415;28;20544;-62
2022/02/06 13:34:58;;;;;;;16.75;9.77;;;;;;;;;;10333147;28;20113;-62
2022/02/06 13:40:10;;;;;;;15.90;11.25;;;;;;;;;;10332440;28;20364;-62
2022/02/06 13:45:16;;;;;;;23.98;10.85;;;;;;;;;;10331273;28;20050;-61
2022/02/06 13:50:17;;;;;;;14.98;10.95;;;;;;;;;;10331824;28;20414;-61
2022/02/06 13:55:18;;;;;;;16.65;10.10;;;;;;;;;;10331137;28;20026;-64
2022/02/06 14:00:20;;;;;;;16.08;10.73;;;;;;;;;;10330143;28;20096;-61
2022/02/06 14:05:23;;;;;;;17.27;10.02;;;;;;;;;;10331461;28;20030;-62
2022/02/06 14:10:28;;;;;;;18.23;10.45;;;;;;;;;;10311180;28;20033;-61
2022/02/06 14:15:29;;;;;;;15.85;10.35;;;;;;;;;;10297424;28;20034;-61
2022/02/06 14:20:29;;;;;;;14.65;10.68;;;;;;;;;;10294568;28;20478;-62
2022/02/06 14:25:33;;;;;;;19.88;9.80;;;;;;;;;;10293199;28;20034;-63
2022/02/06 14:30:40;;;;;;;17.08;9.70;;;;;;;;;;10296156;28;20486;-63
2022/02/06 14:35:54;;;;;;;15.63;10.30;;;;;;;;;;10296300;28;20026;-65
2022/02/06 14:46:25;;;;;;;15.70;9.80;;;;;;;;;;10296206;28;20273;-63
2022/02/06 14:51:27;;;;;;;16.40;9.52;;;;;;;;;;10295787;28;20044;-65
2022/02/06 14:56:29;;;;;;;13.82;9.32;;;;;;;;;;10295718;28;20304;-63
2022/02/06 15:01:29;;;;;;;20.27;9.60;;;;;;;;;;10295491;28;20344;-63
2022/02/06 15:06:32;;;;;;;15.55;9.50;;;;;;;;;;10294318;28;20064;-64
2022/02/06 15:11:33;;;;;;;14.38;8.68;;;;;;;;;;10295569;28;20410;-64
2022/02/06 15:16:36;;;;;;;14.77;8.63;;;;;;;;;;10294914;28;20026;-64
2022/02/06 15:21:36;;;;;;;15.27;8.75;;;;;;;;;;10294065;28;21146;-63
2022/02/06 15:26:36;;;;;;;17.40;8.63;;;;;;;;;;10288650;28;20053;-64
2022/02/06 15:31:37;;;;;;;13.43;8.77;;;;;;;;;;10293881;28;20559;-64
2022/02/06 15:36:39;;;;;;;18.40;8.03;;;;;;;;;;10294437;28;20444;-61
2022/02/06 15:41:42;;;;;;;11.65;8.75;;;;;;;;;;10293884;28;20037;-61
2022/02/06 15:46:42;;;;;;;12.35;8.10;;;;;;;;;;10292585;28;20245;-62
2022/02/06 15:51:43;;;;;;;17.13;9.70;;;;;;;;;;10293400;28;20629;-62
2022/02/06 15:56:43;;;;;;;11.77;8.50;;;;;;;;;;10293841;28;20552;-62
2022/02/06 16:01:44;;;;;;;16.05;10.07;;;;;;;;;;10293537;28;20087;-62
2022/02/06 16:06:45;;;;;;;14.82;9.23;;;;;;;;;;10293399;28;20446;-61
2022/02/06 16:11:45;;;;;;;16.15;9.60;;;;;;;;;;10295501;28;20030;-62
2022/02/06 16:16:45;;;;;;;13.10;9.50;;;;;;;;;;10297548;28;20185;-62
2022/02/06 16:21:46;;;;;;;16.73;9.95;;;;;;;;;;10297887;28;20527;-62
2022/02/06 16:26:46;;;;;;;13.20;9.40;;;;;;;;;;10289824;28;20108;-62
2022/02/06 16:31:47;;;;;;;12.85;9.02;;;;;;;;;;10292963;28;20500;-62
2022/02/06 16:36:47;;;;;;;13.57;9.13;;;;;;;;;;10289894;28;20037;-62
2022/02/06 16:41:47;;;;;;;15.32;9.13;;;;;;;;;;10304585;28;20544;-61
2022/02/06 16:46:48;;;;;;;11.83;8.83;;;;;;;;;;10323903;28;20034;-62
2022/02/06 16:51:48;;;;;;;11.33;9.73;;;;;;;;;;10324334;28;20539;-61
2022/02/06 16:56:49;;;;;;;13.55;8.90;;;;;;;;;;10326801;28;20031;-61
2022/02/06 17:01:49;;;;;;;15.38;9.07;;;;;;;;;;10325939;28;20034;-61
2022/02/06 17:06:50;;;;;;;16.23;9.52;;;;;;;;;;10318887;28;20033;-59
2022/02/06 17:11:52;;;;;;;13.38;9.30;;;;;;;;;;10299651;28;20598;-59
2022/02/06 17:16:52;;;;;;;17.38;10.40;;;;;;;;;;10299176;28;20034;-62
2022/02/06 17:21:55;;;;;;;15.38;10.27;;;;;;;;;;10298214;28;20117;-62
2022/02/06 17:26:55;;;;;;;16.73;9.80;;;;;;;;;;10299149;28;20206;-60
2022/02/06 17:31:56;;;;;;;13.15;9.40;;;;;;;;;;10296979;28;20051;-61
2022/02/06 17:36:56;;;;;;;17.83;10.25;;;;;;;;;;10292654;28;20537;-61
2022/02/06 17:41:57;;;;;;;17.00;9.98;;;;;;;;;;10294156;28;20463;-62
2022/02/06 17:46:57;;;;;;;17.98;9.35;;;;;;;;;;10294983;28;20647;-64
2022/02/06 17:51:58;;;;;;;16.35;10.20;;;;;;;;;;10294811;28;20166;-61
2022/02/06 17:56:58;;;;;;;14.30;10.37;;;;;;;;;;10295366;28;20114;-61
2022/02/06 18:01:58;;;;;;;16.50;10.23;;;;;;;;;;10294377;28;20541;-61
2022/02/06 18:06:59;;;;;;;12.87;9.47;;;;;;;;;;10294245;28;20354;-60
2022/02/06 18:12:00;;;;;;;14.83;9.73;;;;;;;;;;10294155;28;20034;-61
2022/02/06 18:17:00;;;;;;;19.67;9.00;;;;;;;;;;10296813;28;20042;-60
2022/02/06 18:22:01;;;;;;;22.80;10.07;;;;;;;;;;10327092;28;20478;-61
2022/02/06 18:27:01;;;;;;;44.72;10.40;;;;;;;;;;10328531;28;20668;-61
2022/02/06 18:32:02;;;;;;;20.30;9.25;;;;;;;;;;10329310;28;20046;-61
2022/02/06 18:37:02;;;;;;;29.02;9.77;;;;;;;;;;10330436;28;20027;-62
2022/02/06 18:42:03;;;;;;;16.17;9.60;;;;;;;;;;10326895;28;20026;-61
2022/02/06 18:47:05;;;;;;;14.13;9.55;;;;;;;;;;10326876;28;20031;-62
2022/02/06 18:52:07;;;;;;;14.50;9.02;;;;;;;;;;10328779;28;20036;-62
2022/02/06 18:57:09;;;;;;;14.15;8.40;;;;;;;;;;10329358;28;20037;-61
2022/02/06 19:02:09;;;;;;;13.13;8.43;;;;;;;;;;10328431;28;20406;-61
2022/02/06 19:07:10;;;;;;;14.40;9.00;;;;;;;;;;10328678;28;20064;-61
2022/02/06 19:12:11;;;;;;;10.95;8.27;;;;;;;;;;10325602;28;20453;-60
2022/02/06 19:17:11;;;;;;;11.48;9.40;;;;;;;;;;10326061;28;20041;-60
2022/02/06 19:22:12;;;;;;;16.67;8.73;;;;;;;;;;10328231;28;20461;-60
2022/02/06 19:27:12;;;;;;;14.65;9.18;;;;;;;;;;10327216;28;20029;-60
2022/02/06 19:32:13;;;;;;;15.73;9.52;;;;;;;;;;10324340;28;20042;-60
2022/02/06 19:37:14;;;;;;;14.48;9.30;;;;;;;;;;10326244;28;20474;-60
2022/02/06 19:42:16;;;;;;;14.10;9.75;;;;;;;;;;10340714;28;20037;-60
2022/02/06 19:47:17;;;;;;;18.98;10.27;;;;;;;;;;10319540;28;20061;-60
2022/02/06 19:52:17;;;;;;;13.77;9.30;;;;;;;;;;10326041;28;20455;-61
2022/02/06 19:57:18;;;;;;;13.57;9.23;;;;;;;;;;10326034;28;20065;-59
2022/02/06 20:02:18;;;;;;;16.15;10.23;;;;;;;;;;10326553;28;20038;-60
2022/02/06 20:07:20;;;;;;;19.50;9.43;;;;;;;;;;10326822;28;20026;-60
2022/02/06 20:12:22;;;;;;;21.70;10.95;;;;;;;;;;10324196;28;20141;-60
2022/02/06 20:17:25;;;;;;;12.63;9.65;;;;;;;;;;10340629;28;20026;-61
2022/02/06 20:22:25;;;;;;;13.88;9.68;;;;;;;;;;10324866;28;20371;-62
2022/02/06 20:27:26;;;;;;;15.32;10.48;;;;;;;;;;10326860;28;20030;-60
2022/02/06 20:32:27;;;;;;;16.33;9.52;;;;;;;;;;10325933;28;20058;-60
2022/02/06 20:37:28;;;;;;;23.35;10.43;;;;;;;;;;10324586;28;20026;-60
2022/02/06 20:42:28;;;;;;;15.50;10.57;;;;;;;;;;10331455;28;20122;-61
2022/02/06 20:47:29;;;;;;;17.10;10.33;;;;;;;;;;10328442;28;20023;-61
2022/02/06 20:52:30;;;;;;;13.90;9.40;;;;;;;;;;10333012;28;20494;-62
2022/02/06 20:57:30;;;;;;;15.57;9.57;;;;;;;;;;10330107;28;20084;-61
2022/02/06 21:02:32;;;;;;;13.53;8.50;;;;;;;;;;10332025;28;20403;-62
2022/02/06 21:07:32;;;;;;;14.55;9.45;;;;;;;;;;10333777;28;20490;-62
2022/02/06 21:12:45;;;;;;;16.37;9.67;;;;;;;;;;10332213;28;20110;-62
2022/02/06 21:17:45;;;;;;;33.55;11.15;;;;;;;;;;10318353;28;20511;-59
2022/02/06 21:22:46;;;;;;;33.35;11.27;;;;;;;;;;10295577;28;20286;-61
2022/02/06 21:27:46;;;;;;;27.90;10.25;;;;;;;;;;10295233;28;20112;-61
2022/02/06 21:32:47;;;;;;;23.48;11.77;;;;;;;;;;10295552;28;20132;-60
2022/02/06 21:37:47;;;;;;;26.50;10.55;;;;;;;;;;10295187;28;20030;-62
2022/02/06 21:42:48;;;;;;;24.63;9.82;;;;;;;;;;10294257;28;20038;-62
2022/02/06 21:47:48;;;;;;;23.80;11.27;;;;;;;;;;10294415;28;20251;-64
2022/02/06 21:52:49;;;;;;;24.50;10.70;;;;;;;;;;10290329;28;20459;-62
2022/02/06 21:57:49;;;;;;;22.80;10.43;;;;;;;;;;10297933;28;20034;-63
2022/02/06 22:02:51;;;;;;;32.95;11.35;;;;;;;;;;10293869;28;20117;-60
2022/02/06 22:08:07;;;;;;;24.50;10.10;;;;;;;;;;10295851;28;20030;-63
2022/02/06 22:24:05;;;;;;;;;;;;;;;;;;10297218;28;20105;-63
2022/02/06 22:29:11;;;;;;;26.25;10.35;;;;;;;;;;10293722;28;20404;-63
2022/02/06 22:34:12;;;;;;;26.40;10.25;;;;;;;;;;10295206;28;20037;-60
2022/02/06 22:39:12;;;;;;;22.77;10.02;;;;;;;;;;10296013;28;20026;-62
2022/02/06 22:44:15;;;;;;;25.58;10.13;;;;;;;;;;10294156;28;20519;-58
2022/02/06 22:49:16;;;;;;;23.52;9.48;;;;;;;;;;10295919;28;20026;-63
2022/02/06 22:54:16;;;;;;;25.23;9.45;;;;;;;;;;10278627;28;20029;-60
2022/02/06 22:59:17;;;;;;;27.42;9.52;;;;;;;;;;10294697;28;20294;-62
2022/02/06 23:04:18;;;;;;;21.92;8.93;;;;;;;;;;10291102;28;20094;-62
2022/02/06 23:09:18;;;;;;;23.63;9.68;;;;;;;;;;10296641;28;20106;-59
2022/02/06 23:14:19;;;;;;;17.50;8.52;;;;;;;;;;10321054;28;20038;-59
2022/02/06 23:19:22;;;;;;;28.98;9.98;;;;;;;;;;10326549;28;20022;-58
2022/02/06 23:24:22;;;;;;;25.85;9.88;;;;;;;;;;10327641;28;20511;-58
2022/02/06 23:29:23;;;;;;;31.55;8.63;;;;;;;;;;10328241;28;20129;-58
2022/02/06 23:34:25;;;;;;;32.28;9.02;;;;;;;;;;10328216;28;20026;-58
2022/02/06 23:39:25;;;;;;;29.63;9.18;;;;;;;;;;10327752;28;20462;-58
2022/02/06 23:44:25;;;;;;;20.42;8.50;;;;;;;;;;10327825;28;20035;-58
2022/02/06 23:49:29;;;;;;;19.67;8.07;;;;;;;;;;10327357;28;20030;-58
2022/02/06 23:54:47;;;;;;;17.27;7.32;;;;;;;;;;10327887;28;20456;-58
2022/02/06 23:59:54;;;;;;;19.10;7.75;;;;;;;;;;10327894;28;20050;-58
